This is the latest recevied weather packets stored in our database for station/object K7ZQU-7. If no packets are shown the sender has not sent any weather packets the latest 10 day(s).
| Time | Temp. | Humidity | Pressure | Rain* | Wind** | Luminosity | Snow |
|---|---|---|---|---|---|---|---|
| 1777752532 | 17.22° C | 45% | 1014.6 hPa | 0 mm | 0.89 m/s, 212° | - | - |
| 1777752233 | 17.22° C | 42% | 1014.6 hPa | 0 mm | 1.34 m/s, 357° | - | - |
| 1777751931 | 17.22° C | 44% | 1014.6 hPa | 0 mm | 1.79 m/s, 104° | - | - |
| 1777751333 | 16.67° C | 45% | 1014.6 hPa | 0 mm | 1.79 m/s, 163° | - | - |
| 1777750735 | 16.67° C | 44% | 1014.6 hPa | 0 mm | 2.24 m/s, 70° | - | - |
| 1777750135 | 16.11° C | 47% | 1014.6 hPa | 0 mm | 1.79 m/s, 201° | - | - |
| 1777749537 | 15.56° C | 45% | 1014.7 hPa | 0 mm | 2.68 m/s, 138° | - | - |
| 1777749238 | 15.56° C | 45% | 1014.6 hPa | 0 mm | 2.24 m/s, 197° | - | - |
| 1777748937 | 15.56° C | 46% | 1014.6 hPa | 0 mm | 0.89 m/s, 103° | - | - |
| 1777748338 | 15.56° C | 49% | 1014.5 hPa | 0 mm | 2.24 m/s, 283° | - | - |
| 1777748039 | 15.56° C | 50% | 1014.5 hPa | 0 mm | 0.89 m/s, 349° | - | - |
| 1777747139 | 14.44° C | 52% | 1014.5 hPa | 0 mm | 0.89 m/s, 87° | - | - |
| 1777746841 | 14.44° C | 54% | 1014.5 hPa | 0 mm | 0.89 m/s, 293° | - | - |
| 1777746542 | 14.44° C | 51% | 1014.5 hPa | 0 mm | 2.24 m/s, 117° | - | - |
| 1777746243 | 14.44° C | 55% | 1014.5 hPa | 0 mm | 1.79 m/s, 195° | - | - |
| 1777745941 | 14.44° C | 55% | 1014.6 hPa | 0 mm | 1.34 m/s, 34° | - | - |
| 1777745642 | 13.89° C | 58% | 1014.4 hPa | 0 mm | 0 m/s | - | - |
| 1777745343 | 13.89° C | 59% | 1014.5 hPa | 0 mm | 0.45 m/s, 163° | - | - |
| 1777744745 | 13.33° C | 55% | 1014.4 hPa | 0 mm | 2.24 m/s, 135° | - | - |
| 1777744443 | 13.33° C | 55% | 1014.4 hPa | 0 mm | 2.24 m/s, 117° | - | - |
| 1777742946 | 13.89° C | 59% | 1014.1 hPa | 0 mm | 1.79 m/s, 257° | - | - |
| 1777742347 | 13.33° C | 64% | 1014 hPa | 0 mm | 0.89 m/s, 146° | - | - |
| 1777742048 | 12.78° C | 63% | 1014 hPa | 0 mm | 1.34 m/s, 177° | - | - |
| 1777741749 | 12.78° C | 65% | 1014 hPa | 0 mm | 1.34 m/s, 117° | - | - |
| 1777741148 | 12.22° C | 64% | 1013.9 hPa | 0 mm | 1.34 m/s, 222° | - | - |
* Rain latest hour (hover to see other rain measurements)
** Current wind speed in m/s (hover to see current wind gust speed)